PILOTS ONLINE: 347    ATC ONLINE: 42

NZWN

Wellington International Airport

Location

IATA WLG
City Wellington
Country  New Zealand
Latitude 41° 19' 37" S
Longitude 174° 48' 17" E
Elevation 41 ft
Type Large Airport

Map

Weather

METAR
2014/09/23 22:00
NZWN 232200Z AUTO 01018KT 9999 NCD 17/09 Q1013 NOSIG
TAF
2014/09/23 18:06
TAF NZWN 231704Z 2318/2418 01012KT 9999 FEW030

Runways

16/34 6352 ft / 148 ft

Outbound flights

Callsign Flying to Pilot ATD/STD ETA Aircraft

Inbound flights

Callsign Flying from Pilot ATD ETA Aircraft